createdAt,value
2018-05-09T00:00:59.376Z,17.06
2018-05-09T00:03:27.365Z,17.15
2018-05-09T00:05:55.419Z,16.69
2018-05-09T00:08:23.466Z,16.92
2018-05-09T00:10:51.489Z,16.93
2018-05-09T00:13:19.481Z,16.97
2018-05-09T00:15:47.496Z,16.97
2018-05-09T00:18:15.526Z,16.93
2018-05-09T00:20:43.575Z,16.84
2018-05-09T00:23:11.871Z,16.83
2018-05-09T00:25:39.809Z,16.86
2018-05-09T00:28:07.859Z,16.84
2018-05-09T00:30:35.892Z,16.83
2018-05-09T00:33:03.915Z,16.84
2018-05-09T00:35:31.893Z,16.38
2018-05-09T00:37:59.913Z,16.26
2018-05-09T00:40:27.900Z,16.24
2018-05-09T00:42:55.928Z,16.28
2018-05-09T00:45:23.972Z,16.45
2018-05-09T00:47:51.932Z,16.52
2018-05-09T00:50:20.004Z,16.62
2018-05-09T00:52:47.922Z,16.68
2018-05-09T00:55:15.925Z,16.68
2018-05-09T00:57:43.980Z,16.54
2018-05-09T01:00:11.998Z,16.60
2018-05-09T01:02:40.020Z,16.56
2018-05-09T01:05:07.975Z,16.62
2018-05-09T01:07:35.991Z,16.50
2018-05-09T01:10:04.065Z,16.61
2018-05-09T01:12:32.019Z,16.35
2018-05-09T01:15:00.064Z,16.44
2018-05-09T01:17:28.080Z,16.55
2018-05-09T01:19:56.078Z,16.52
2018-05-09T01:22:24.081Z,16.50
2018-05-09T01:24:52.670Z,16.45
2018-05-09T01:27:20.671Z,16.46
2018-05-09T01:29:48.714Z,15.99
2018-05-09T01:32:16.729Z,16.15
2018-05-09T01:34:44.728Z,16.23
2018-05-09T01:37:12.724Z,16.27
2018-05-09T01:39:40.722Z,15.75
2018-05-09T01:42:08.720Z,14.90
2018-05-09T01:44:36.747Z,15.08
2018-05-09T01:47:04.711Z,15.35
2018-05-09T01:49:32.709Z,14.81
2018-05-09T01:52:00.718Z,14.70
2018-05-09T01:54:28.823Z,15.19
2018-05-09T01:56:56.844Z,15.41
2018-05-09T01:59:24.843Z,15.50
2018-05-09T02:01:52.862Z,15.68
2018-05-09T02:04:20.861Z,15.93
2018-05-09T02:06:48.877Z,16.01
2018-05-09T02:09:16.917Z,16.07
2018-05-09T02:11:44.890Z,15.97
2018-05-09T02:14:12.911Z,15.97
2018-05-09T02:16:41.007Z,15.90
2018-05-09T02:19:09.004Z,15.10
2018-05-09T02:21:36.999Z,15.63
2018-05-09T02:24:04.946Z,15.28
2018-05-09T02:26:33.523Z,15.32
2018-05-09T02:29:01.643Z,15.79
2018-05-09T02:31:29.646Z,15.82
2018-05-09T02:33:57.661Z,15.08
2018-05-09T02:36:25.680Z,15.58
2018-05-09T02:38:53.619Z,15.63
2018-05-09T02:41:21.662Z,15.34
2018-05-09T02:43:49.772Z,15.27
2018-05-09T02:46:17.720Z,15.10
2018-05-09T02:48:45.751Z,15.34
2018-05-09T02:51:13.768Z,15.28
2018-05-09T02:53:41.805Z,15.41
2018-05-09T02:56:09.792Z,15.35
2018-05-09T02:58:37.805Z,15.42
2018-05-09T03:01:05.779Z,15.56
2018-05-09T03:03:33.808Z,14.84
2018-05-09T03:06:01.712Z,14.60
2018-05-09T03:08:29.614Z,14.98
2018-05-09T03:10:57.584Z,15.28
2018-05-09T03:13:25.602Z,15.30
2018-05-09T03:15:53.618Z,15.46
2018-05-09T03:18:21.671Z,15.16
2018-05-09T03:20:49.706Z,15.36
2018-05-09T03:23:17.719Z,15.42
2018-05-09T03:25:45.655Z,15.47
2018-05-09T03:28:14.224Z,15.51
2018-05-09T03:30:42.208Z,15.53
2018-05-09T03:33:10.232Z,15.17
2018-05-09T03:35:38.221Z,15.24
2018-05-09T03:38:06.207Z,15.49
2018-05-09T03:40:34.162Z,15.56
2018-05-09T03:43:02.172Z,15.74
2018-05-09T03:45:30.129Z,15.88
2018-05-09T03:47:58.155Z,15.75
2018-05-09T03:50:26.093Z,16.00
2018-05-09T03:52:54.052Z,15.95
2018-05-09T03:55:22.102Z,16.09
2018-05-09T03:57:50.111Z,15.84
2018-05-09T04:00:18.143Z,15.15
2018-05-09T04:02:57.946Z,14.06
2018-05-09T04:05:37.794Z,14.69
2018-05-09T04:08:18.681Z,13.89
2018-05-09T04:10:46.690Z,14.33
2018-05-09T04:13:14.792Z,13.87
2018-05-09T04:15:42.809Z,13.73
2018-05-09T04:18:11.164Z,13.45
2018-05-09T04:20:39.272Z,13.40
2018-05-09T04:23:07.210Z,13.66
2018-05-09T04:25:35.191Z,14.08
2018-05-09T04:28:03.181Z,14.64
2018-05-09T04:30:31.366Z,15.23
2018-05-09T04:32:59.445Z,15.32
2018-05-09T04:35:27.490Z,15.66
2018-05-09T04:37:55.465Z,15.49
2018-05-09T04:40:23.444Z,15.06
2018-05-09T04:42:51.445Z,15.36
2018-05-09T04:45:19.498Z,15.46
2018-05-09T04:47:47.504Z,15.42
2018-05-09T04:50:15.512Z,15.26
2018-05-09T04:52:43.510Z,15.72
2018-05-09T04:55:11.511Z,15.86
2018-05-09T04:57:39.521Z,16.24
2018-05-09T05:00:07.558Z,16.42
2018-05-09T05:02:35.541Z,16.70
2018-05-09T05:05:03.585Z,16.88
2018-05-09T05:07:31.605Z,16.78
2018-05-09T05:09:59.613Z,16.61
2018-05-09T05:12:27.630Z,16.60
2018-05-09T05:14:55.594Z,16.96
2018-05-09T05:17:23.617Z,17.04
2018-05-09T05:19:51.611Z,16.68
2018-05-09T05:22:19.672Z,17.08
2018-05-09T05:24:47.702Z,17.15
2018-05-09T05:27:15.684Z,16.80
2018-05-09T05:29:43.766Z,16.84
2018-05-09T05:32:12.117Z,17.21
2018-05-09T05:34:40.168Z,16.40
2018-05-09T05:37:08.186Z,16.20
2018-05-09T05:39:36.155Z,17.40
2018-05-09T05:42:04.155Z,17.18
2018-05-09T05:44:32.154Z,17.16
2018-05-09T05:47:00.272Z,16.95
2018-05-09T05:49:28.434Z,17.24
2018-05-09T05:51:56.464Z,16.65
2018-05-09T05:54:24.561Z,17.73
2018-05-09T05:56:52.537Z,18.65
2018-05-09T05:59:20.581Z,17.86
2018-05-09T06:01:48.667Z,18.20
2018-05-09T06:04:16.671Z,19.14
2018-05-09T06:06:44.679Z,19.03
2018-05-09T06:09:12.685Z,19.33
2018-05-09T06:11:40.738Z,18.78
2018-05-09T06:14:08.673Z,18.51
2018-05-09T06:16:36.661Z,19.33
2018-05-09T06:19:04.726Z,19.42
2018-05-09T06:21:32.771Z,19.31
2018-05-09T06:24:00.885Z,20.35
2018-05-09T06:26:28.887Z,21.00
2018-05-09T06:28:56.895Z,20.72
2018-05-09T06:31:24.935Z,20.57
2018-05-09T06:33:53.191Z,21.32
2018-05-09T06:36:21.272Z,21.92
2018-05-09T06:38:49.281Z,20.76
2018-05-09T06:41:17.386Z,21.22
2018-05-09T06:43:45.482Z,21.95
2018-05-09T06:46:13.511Z,21.89
2018-05-09T06:48:41.506Z,21.60
2018-05-09T06:51:09.464Z,22.10
2018-05-09T06:53:37.433Z,21.75
2018-05-09T06:56:05.438Z,22.00
2018-05-09T06:58:33.392Z,22.77
2018-05-09T07:01:01.494Z,22.80
2018-05-09T07:03:29.595Z,23.58
2018-05-09T07:05:57.615Z,24.24
2018-05-09T07:08:25.609Z,23.89
2018-05-09T07:10:53.701Z,24.68
2018-05-09T07:13:21.737Z,24.74
2018-05-09T07:15:49.764Z,24.89
2018-05-09T07:18:17.702Z,25.00
2018-05-09T07:20:45.669Z,24.83
2018-05-09T07:23:13.801Z,25.32
2018-05-09T07:25:41.717Z,26.10
2018-05-09T07:28:09.746Z,25.66
2018-05-09T07:30:37.764Z,25.95
2018-05-09T07:33:05.742Z,24.64
2018-05-09T07:35:34.174Z,25.90
2018-05-09T07:38:02.185Z,25.78
2018-05-09T07:40:30.254Z,25.49
2018-05-09T07:42:58.247Z,25.51
2018-05-09T07:45:26.277Z,24.93
2018-05-09T07:47:54.346Z,26.23
2018-05-09T07:50:22.314Z,26.66
2018-05-09T07:52:50.347Z,26.35
2018-05-09T07:55:18.357Z,27.18
2018-05-09T07:57:46.392Z,26.91
2018-05-09T08:00:14.408Z,26.33
2018-05-09T08:02:42.441Z,27.66
2018-05-09T08:05:10.417Z,28.98
2018-05-09T08:07:38.437Z,29.43
2018-05-09T08:10:06.508Z,29.48
2018-05-09T08:12:34.439Z,27.66
2018-05-09T08:15:02.530Z,28.18
2018-05-09T08:17:30.516Z,29.38
2018-05-09T08:19:58.575Z,28.99
2018-05-09T08:22:26.549Z,28.75
2018-05-09T08:24:54.590Z,28.28
2018-05-09T08:27:22.618Z,27.64
2018-05-09T08:29:50.691Z,28.24
2018-05-09T08:32:18.843Z,28.18
2018-05-09T08:34:46.956Z,27.90
2018-05-09T08:37:15.329Z,27.71
2018-05-09T08:39:43.414Z,28.27
2018-05-09T08:42:11.450Z,28.42
2018-05-09T08:44:39.414Z,29.45
2018-05-09T08:47:07.411Z,29.16
2018-05-09T08:49:36.878Z,29.84
2018-05-09T08:52:04.944Z,29.97
2018-05-09T08:54:32.950Z,30.57
2018-05-09T08:57:00.981Z,30.22
2018-05-09T08:59:28.970Z,30.75
2018-05-09T09:01:57.001Z,30.10
2018-05-09T09:04:25.066Z,29.73
2018-05-09T09:06:53.030Z,29.56
2018-05-09T09:09:21.030Z,29.64
2018-05-09T09:11:49.172Z,29.56
2018-05-09T09:14:17.270Z,30.14
2018-05-09T09:16:45.351Z,30.19
2018-05-09T09:19:13.452Z,29.43
2018-05-09T09:21:41.465Z,30.51
2018-05-09T09:24:09.535Z,29.91
2018-05-09T09:26:37.409Z,30.99
2018-05-09T09:29:05.506Z,32.04
2018-05-09T09:31:33.465Z,31.70
2018-05-09T09:34:01.431Z,31.34
2018-05-09T09:36:29.488Z,30.41
2018-05-09T09:38:57.892Z,29.74
2018-05-09T09:41:25.971Z,30.57
2018-05-09T09:43:53.955Z,31.66
2018-05-09T09:46:21.878Z,31.47
2018-05-09T09:48:49.868Z,31.58
2018-05-09T09:51:17.875Z,32.27
2018-05-09T09:53:45.897Z,32.13
2018-05-09T09:56:13.880Z,33.11
2018-05-09T09:58:41.901Z,32.74
2018-05-09T10:01:09.864Z,34.01
2018-05-09T10:03:37.859Z,35.04
2018-05-09T10:06:05.794Z,35.64
2018-05-09T10:08:33.869Z,34.80
2018-05-09T10:11:01.845Z,33.86
2018-05-09T10:13:29.895Z,33.68
2018-05-09T10:15:57.903Z,34.34
2018-05-09T10:18:25.946Z,33.32
2018-05-09T10:20:53.965Z,34.22
2018-05-09T10:23:22.088Z,35.06
2018-05-09T10:25:50.137Z,34.78
2018-05-09T10:28:18.231Z,35.05
2018-05-09T10:30:46.264Z,34.52
2018-05-09T10:33:14.335Z,33.41
2018-05-09T10:35:42.352Z,34.76
2018-05-09T10:38:10.455Z,33.94
2018-05-09T10:40:38.868Z,34.09
2018-05-09T10:43:06.902Z,34.32
2018-05-09T10:45:34.979Z,34.49
2018-05-09T10:48:03.040Z,33.12
2018-05-09T10:50:30.987Z,33.13
2018-05-09T10:52:58.923Z,34.63
2018-05-09T10:55:26.893Z,33.64
2018-05-09T10:57:54.934Z,33.90
2018-05-09T11:00:22.955Z,32.29
2018-05-09T11:02:50.989Z,32.69
2018-05-09T11:05:19.067Z,31.67
2018-05-09T11:07:47.063Z,31.20
2018-05-09T11:10:15.067Z,31.87
2018-05-09T11:12:43.078Z,33.69
2018-05-09T11:15:11.100Z,32.89
2018-05-09T11:17:39.183Z,34.08
2018-05-09T11:20:07.178Z,34.84
2018-05-09T11:22:35.251Z,34.56
2018-05-09T11:25:03.231Z,34.61
2018-05-09T11:27:31.235Z,36.45
2018-05-09T11:29:59.385Z,34.62
2018-05-09T11:32:27.501Z,35.91
2018-05-09T11:34:55.537Z,35.77
2018-05-09T11:37:23.582Z,36.53
2018-05-09T11:39:51.588Z,36.37
2018-05-09T11:42:19.916Z,34.60
2018-05-09T11:44:47.860Z,34.37
2018-05-09T11:47:15.879Z,32.14
2018-05-09T11:49:43.947Z,32.19
2018-05-09T11:52:12.015Z,33.16
2018-05-09T11:54:40.029Z,33.28
2018-05-09T11:57:08.066Z,33.05
2018-05-09T11:59:36.146Z,34.40
2018-05-09T12:02:04.247Z,34.75
2018-05-09T12:04:32.368Z,33.43
2018-05-09T12:07:00.381Z,34.33
2018-05-09T12:09:28.346Z,33.09
2018-05-09T12:11:56.497Z,33.39
2018-05-09T12:14:24.563Z,33.49
2018-05-09T12:16:52.603Z,33.62
2018-05-09T12:19:20.756Z,33.70
2018-05-09T12:21:48.897Z,33.94
2018-05-09T12:24:17.050Z,34.08
2018-05-09T12:26:45.494Z,33.33
2018-05-09T12:29:13.582Z,33.81
2018-05-09T12:31:41.676Z,33.10
2018-05-09T12:34:09.885Z,33.20
2018-05-09T12:36:38.005Z,33.04
2018-05-09T12:39:06.100Z,33.41
2018-05-09T12:41:34.263Z,33.68
2018-05-09T12:44:02.789Z,33.21
2018-05-09T12:46:30.832Z,32.85
2018-05-09T12:48:59.835Z,32.45
2018-05-09T12:51:27.905Z,32.95
2018-05-09T12:53:55.934Z,32.19
2018-05-09T12:56:23.999Z,31.99
2018-05-09T12:58:52.022Z,33.25
2018-05-09T13:01:20.074Z,33.15
2018-05-09T13:03:48.126Z,32.57
2018-05-09T13:06:16.262Z,32.49
2018-05-09T13:08:44.930Z,31.38
2018-05-09T13:11:13.043Z,30.98
2018-05-09T13:13:41.042Z,30.85
2018-05-09T13:16:09.057Z,30.25
2018-05-09T13:18:36.903Z,30.32
2018-05-09T13:21:04.948Z,29.51
2018-05-09T13:23:32.987Z,29.98
2018-05-09T13:26:01.042Z,30.69
2018-05-09T13:28:29.090Z,31.69
2018-05-09T13:30:57.168Z,31.44
2018-05-09T13:33:25.193Z,31.07
2018-05-09T13:35:53.283Z,30.55
2018-05-09T13:38:21.291Z,31.58
2018-05-09T13:40:49.408Z,31.65
2018-05-09T13:43:17.431Z,32.00
2018-05-09T13:45:45.763Z,31.41
2018-05-09T13:48:13.789Z,30.86
2018-05-09T13:50:41.854Z,31.38
2018-05-09T13:53:09.962Z,30.75
2018-05-09T14:42:18.995Z,24.47
2018-05-09T14:44:47.720Z,25.28
2018-05-09T14:47:17.358Z,25.08
2018-05-09T14:49:45.787Z,24.30
2018-05-09T14:52:14.353Z,23.84
2018-05-09T14:54:42.645Z,23.54
2018-05-09T14:57:11.311Z,23.17
2018-05-09T14:59:39.799Z,22.74
2018-05-09T15:02:08.018Z,22.59
2018-05-09T15:04:36.443Z,22.44
2018-05-09T15:07:04.753Z,22.16
2018-05-09T15:09:33.193Z,22.66
2018-05-09T15:12:01.853Z,22.63
2018-05-09T15:14:30.405Z,22.32
2018-05-09T15:16:58.506Z,22.08
2018-05-09T15:19:26.935Z,22.92
2018-05-09T15:21:55.393Z,22.06
2018-05-09T15:24:23.895Z,22.65
2018-05-09T15:26:52.473Z,22.58
2018-05-09T15:29:21.041Z,22.28
2018-05-09T15:31:49.365Z,22.27
2018-05-09T15:34:18.006Z,22.26
2018-05-09T15:36:46.487Z,22.48
2018-05-09T15:39:14.889Z,22.10
2018-05-09T15:41:43.447Z,21.54
2018-05-09T15:44:12.225Z,21.60
2018-05-09T15:46:40.527Z,22.33
2018-05-09T15:49:09.010Z,22.32
2018-05-09T15:51:37.571Z,21.90
2018-05-09T15:54:05.913Z,21.79
2018-05-09T15:56:34.526Z,22.20
2018-05-09T15:59:02.906Z,21.14
2018-05-09T16:01:31.407Z,21.65
2018-05-09T16:03:59.870Z,21.87
2018-05-09T16:06:28.318Z,22.10
2018-05-09T16:08:56.723Z,21.68
2018-05-09T16:11:25.315Z,21.28
2018-05-09T16:13:53.620Z,21.09
2018-05-09T16:16:22.305Z,21.16
2018-05-09T16:18:50.751Z,21.38
2018-05-09T16:21:19.063Z,21.22
2018-05-09T16:23:47.516Z,21.62
2018-05-09T16:26:15.949Z,21.56
2018-05-09T16:28:44.382Z,21.32
2018-05-09T16:31:13.160Z,21.02
2018-05-09T16:33:41.702Z,20.22
2018-05-09T16:36:10.313Z,20.28
2018-05-09T16:38:39.007Z,20.17
2018-05-09T16:41:07.909Z,19.92
2018-05-09T16:43:36.578Z,19.50
2018-05-09T16:46:04.827Z,19.60
2018-05-09T16:48:33.435Z,19.49
2018-05-09T16:51:02.023Z,20.21
2018-05-09T16:53:30.324Z,19.95
2018-05-09T16:55:58.983Z,20.71
2018-05-09T16:58:27.663Z,21.03
2018-05-09T17:00:56.059Z,21.10
2018-05-09T17:03:24.851Z,20.97
2018-05-09T17:05:53.514Z,21.18
2018-05-09T17:08:21.965Z,20.16
2018-05-09T17:10:50.515Z,19.48
2018-05-09T17:13:19.166Z,19.43
2018-05-09T17:15:47.744Z,19.58
2018-05-09T17:18:16.189Z,20.04
2018-05-09T17:20:44.720Z,19.71
2018-05-09T17:23:13.388Z,20.01
2018-05-09T17:25:41.636Z,19.98
2018-05-09T17:28:10.154Z,19.93
2018-05-09T17:30:38.748Z,19.72
2018-05-09T17:33:07.060Z,19.71
2018-05-09T17:35:35.596Z,19.87
2018-05-09T17:38:04.173Z,19.45
2018-05-09T17:40:32.786Z,19.35
2018-05-09T17:43:01.256Z,19.22
2018-05-09T17:45:29.818Z,19.41
2018-05-09T17:47:58.111Z,19.45
2018-05-09T17:50:27.594Z,19.51
2018-05-09T17:52:56.006Z,19.99
2018-05-09T17:55:24.241Z,20.26
2018-05-09T17:57:52.654Z,20.75
2018-05-09T18:00:21.124Z,20.80
2018-05-09T18:02:49.486Z,20.79
2018-05-09T18:05:17.974Z,20.48
2018-05-09T18:07:46.343Z,19.64
2018-05-09T18:10:14.557Z,18.73
2018-05-09T18:12:43.034Z,18.87
2018-05-09T18:15:11.413Z,19.38
2018-05-09T18:17:39.956Z,19.28
2018-05-09T18:20:08.382Z,19.24
2018-05-09T18:22:36.883Z,19.17
2018-05-09T18:25:05.194Z,19.73
2018-05-09T18:27:33.738Z,19.31
2018-05-09T18:30:02.079Z,19.07
2018-05-09T18:32:30.625Z,19.33
2018-05-09T18:34:59.022Z,19.29
2018-05-09T18:37:27.595Z,19.71
2018-05-09T18:39:56.105Z,19.66
2018-05-09T18:42:24.882Z,19.40
2018-05-09T18:44:52.821Z,19.50
2018-05-09T18:47:20.873Z,19.93
2018-05-09T18:49:48.907Z,20.01
2018-05-09T18:52:16.993Z,20.33
2018-05-09T18:54:45.295Z,20.38
2018-05-09T18:57:13.263Z,19.94
2018-05-09T18:59:41.640Z,19.28
2018-05-09T19:02:10.037Z,19.23
2018-05-09T19:04:38.732Z,19.22
2018-05-09T19:07:07.027Z,19.53
2018-05-09T19:09:35.483Z,19.83
2018-05-09T19:12:03.665Z,19.97
2018-05-09T19:14:32.042Z,20.23
2018-05-09T19:17:00.118Z,19.72
2018-05-09T19:19:28.374Z,19.23
2018-05-09T19:21:57.066Z,19.75
2018-05-09T19:24:25.553Z,20.08
2018-05-09T19:26:53.829Z,20.28
2018-05-09T19:29:22.244Z,20.32
2018-05-09T19:31:50.699Z,20.15
2018-05-09T19:34:19.292Z,20.26
2018-05-09T19:36:47.758Z,20.20
2018-05-09T19:39:16.217Z,20.47
2018-05-09T19:41:44.981Z,20.66
2018-05-09T19:44:13.505Z,20.58
2018-05-09T19:46:42.072Z,20.67
2018-05-09T19:49:10.549Z,20.24
2018-05-09T19:51:38.838Z,20.55
2018-05-09T19:54:07.307Z,20.58
2018-05-09T19:56:36.184Z,20.60
2018-05-09T19:59:04.525Z,20.68
2018-05-09T20:01:33.372Z,20.66
2018-05-09T20:04:02.146Z,20.54
2018-05-09T20:06:30.735Z,19.62
2018-05-09T20:08:59.337Z,19.89
2018-05-09T20:11:28.002Z,20.29
2018-05-09T20:13:56.743Z,20.45
2018-05-09T20:16:25.022Z,19.92
2018-05-09T20:18:53.344Z,19.69
2018-05-09T20:21:21.907Z,20.13
2018-05-09T20:23:50.657Z,20.22
2018-05-09T20:26:19.445Z,20.01
2018-05-09T20:28:53.394Z,20.15
2018-05-09T20:31:39.464Z,19.97
2018-05-09T20:34:08.016Z,19.98
2018-05-09T20:36:36.359Z,20.20
2018-05-09T20:39:04.977Z,20.16
2018-05-09T20:41:33.079Z,19.77
2018-05-09T20:44:01.558Z,20.16
2018-05-09T20:46:29.729Z,19.52
2018-05-09T20:48:57.752Z,19.14
2018-05-09T20:51:38.091Z,18.98
2018-05-09T20:54:06.410Z,18.76
2018-05-09T20:56:35.063Z,18.88
2018-05-09T20:59:03.630Z,19.09
2018-05-09T21:01:43.466Z,18.86
2018-05-09T21:04:11.542Z,18.74
2018-05-09T21:06:39.593Z,18.91
2018-05-09T21:09:07.737Z,18.80
2018-05-09T21:11:36.346Z,18.98
2018-05-09T21:14:04.974Z,19.23
2018-05-09T21:16:33.543Z,19.03
2018-05-09T21:19:01.987Z,19.13
2018-05-09T21:21:30.725Z,19.67
2018-05-09T21:23:58.822Z,19.77
2018-05-09T21:26:26.827Z,19.32
2018-05-09T21:28:54.852Z,19.01
2018-05-09T21:31:22.886Z,19.06
2018-05-09T21:33:50.917Z,19.00
2018-05-09T21:36:19.101Z,18.53
2018-05-09T21:38:47.081Z,18.27
2018-05-09T21:41:15.143Z,18.32
2018-05-09T21:43:43.162Z,18.57
2018-05-09T21:46:11.223Z,18.52
2018-05-09T21:48:39.235Z,18.56
2018-05-09T21:51:07.222Z,17.48
2018-05-09T21:53:35.264Z,17.56
2018-05-09T21:56:03.386Z,17.53
2018-05-09T21:58:31.326Z,17.93
2018-05-09T22:00:59.442Z,17.44
2018-05-09T22:03:27.404Z,17.46
2018-05-09T22:05:55.431Z,17.98
2018-05-09T22:08:23.515Z,17.60
2018-05-09T22:10:51.682Z,17.77
2018-05-09T22:13:19.747Z,18.30
2018-05-09T22:15:48.269Z,18.55
2018-05-09T22:18:17.052Z,18.04
2018-05-09T22:20:45.483Z,18.42
2018-05-09T22:23:14.024Z,18.66
2018-05-09T22:25:42.047Z,18.84
2018-05-09T22:28:10.066Z,18.82
2018-05-09T22:30:38.063Z,18.79
2018-05-09T22:33:06.094Z,18.92
2018-05-09T22:35:34.088Z,18.88
2018-05-09T22:38:02.078Z,18.86
2018-05-09T22:40:30.090Z,18.48
2018-05-09T22:42:58.173Z,18.37
2018-05-09T22:45:26.183Z,18.89
2018-05-09T22:47:54.192Z,18.78
2018-05-09T22:50:22.175Z,18.54
2018-05-09T22:52:50.191Z,18.74
2018-05-09T22:55:18.207Z,18.80
2018-05-09T22:57:46.250Z,18.89
2018-05-09T23:00:14.350Z,18.48
2018-05-09T23:02:42.601Z,18.25
2018-05-09T23:05:10.604Z,18.29
2018-05-09T23:07:38.623Z,18.45
2018-05-09T23:10:06.661Z,18.11
2018-05-09T23:12:34.642Z,17.96
2018-05-09T23:15:02.765Z,18.04
2018-05-09T23:17:30.762Z,18.31
2018-05-09T23:19:58.723Z,18.43
2018-05-09T23:22:26.755Z,18.55
2018-05-09T23:24:54.874Z,18.51
2018-05-09T23:27:22.911Z,18.38
2018-05-09T23:29:50.898Z,18.34
2018-05-09T23:32:19.003Z,18.40
2018-05-09T23:34:47.020Z,18.34
2018-05-09T23:37:14.985Z,18.42
2018-05-09T23:39:43.009Z,18.45
2018-05-09T23:42:11.049Z,18.39
2018-05-09T23:44:39.666Z,18.42
2018-05-09T23:47:08.100Z,18.35
2018-05-09T23:49:36.796Z,18.30
2018-05-09T23:52:05.317Z,18.22
2018-05-09T23:54:33.749Z,18.05
2018-05-09T23:57:02.200Z,18.09
2018-05-09T23:59:30.521Z,18.14
